Terminal Aerodrome Forecast
Issued by NWS Charleston, WV

Home | Current Version | Previous Version | Text Only | Print | Product List | Glossary On
Versions: 1 2 3 4 5 6 7 8 9 10 11 12 13 14 15 16 17
876
FTUS41 KRLX 231748
TAFPKB
TAF
KPKB 231748Z 2318/2418 15011G19KT P6SM BKN200
     FM232200 14007KT P6SM -SHRA OVC060
     FM241200 09008KT 5SM -SHRA OVC035=

USA.gov is the U.S. government's official web portal to all federal, state and local government web resources and services.